Time,TemperatureF,DewpointF,PressureIn,WindDirection,WindDirectionDegrees,WindSpeedMPH,WindSpeedGustMPH,Humidity,HourlyPrecipIn,Conditions,Clouds,dailyrainin,SoftwareType,DateUTC
2013-02-16 00:01:00,34.0,22.0,-100.00,WNW,294,9.0,11.0,61,0.00,,,-99.99,,2013-02-16 07:01:00,
2013-02-16 00:11:00,33.0,22.0,-100.00,WNW,291,8.0,10.0,63,0.00,,,-99.99,,2013-02-16 07:11:00,
2013-02-16 00:21:00,31.0,20.0,-100.00,NNW,337,4.0,8.0,65,0.00,,,-99.99,,2013-02-16 07:21:00,
2013-02-16 00:31:00,29.0,19.0,-100.00,North,356,6.0,8.0,65,0.00,,,-99.99,,2013-02-16 07:31:00,
2013-02-16 00:41:00,29.0,19.0,-100.00,North,352,4.0,8.0,65,0.00,,,-99.99,,2013-02-16 07:41:00,
2013-02-16 00:52:00,30.0,20.0,-100.00,North,0,4.0,6.0,64,0.00,,,-99.99,,2013-02-16 07:52:00,
2013-02-16 01:01:00,31.0,20.0,-100.00,NNW,346,4.0,6.0,64,0.00,,,-99.99,,2013-02-16 08:01:00,
2013-02-16 01:11:00,30.0,20.0,-100.00,NNW,342,3.0,6.0,65,0.00,,,-99.99,,2013-02-16 08:11:00,
2013-02-16 01:21:00,30.0,20.0,-100.00,North,352,3.0,4.0,66,0.00,,,-99.99,,2013-02-16 08:21:00,
2013-02-16 01:31:00,29.0,19.0,-100.00,NNW,343,3.0,6.0,67,0.00,,,-99.99,,2013-02-16 08:31:00,
2013-02-16 01:41:00,29.0,19.0,-100.00,NNW,343,2.0,5.0,66,0.00,,,-99.99,,2013-02-16 08:41:00,
2013-02-16 01:52:00,28.0,19.0,-100.00,NNW,342,3.0,6.0,68,0.00,,,-99.99,,2013-02-16 08:52:00,
2013-02-16 02:01:00,27.0,19.0,-100.00,NNW,337,2.0,6.0,70,0.00,,,-99.99,,2013-02-16 09:01:00,
2013-02-16 02:11:00,27.0,19.0,-100.00,NNW,328,2.0,4.0,69,0.00,,,-99.99,,2013-02-16 09:11:00,
2013-02-16 02:21:00,28.0,19.0,-100.00,NNW,337,2.0,4.0,70,0.00,,,-99.99,,2013-02-16 09:21:00,
2013-02-16 02:31:00,29.0,20.0,-100.00,NNW,339,2.0,6.0,67,0.00,,,-99.99,,2013-02-16 09:31:00,
2013-02-16 02:42:00,29.0,20.0,-100.00,NNW,347,3.0,6.0,67,0.00,,,-99.99,,2013-02-16 09:42:00,
2013-02-16 02:51:00,29.0,20.0,-100.00,NNW,343,4.0,6.0,69,0.00,,,-99.99,,2013-02-16 09:51:00,
2013-02-16 03:01:00,28.0,19.0,-100.00,NNW,335,2.0,5.0,69,0.00,,,-99.99,,2013-02-16 10:01:00,
2013-02-16 03:11:00,28.0,20.0,-100.00,NNW,332,2.0,4.0,70,0.00,,,-99.99,,2013-02-16 10:11:00,
2013-02-16 03:21:00,28.0,19.0,-100.00,NNW,332,2.0,4.0,69,0.00,,,-99.99,,2013-02-16 10:21:00,
2013-02-16 03:31:00,28.0,19.0,-100.00,NW,322,3.0,6.0,68,0.00,,,-99.99,,2013-02-16 10:31:00,
2013-02-16 03:41:00,28.0,20.0,-100.00,NW,311,4.0,6.0,70,0.00,,,-99.99,,2013-02-16 10:41:00,
2013-02-16 03:51:00,31.0,21.0,-100.00,NW,318,2.0,4.0,65,0.00,,,-99.99,,2013-02-16 10:51:00,
2013-02-16 04:01:00,30.0,20.0,-100.00,North,359,1.0,2.0,66,0.00,,,-99.99,,2013-02-16 11:01:00,
2013-02-16 04:11:00,30.0,20.0,-100.00,North,6,1.0,3.0,67,0.00,,,-99.99,,2013-02-16 11:11:00,
2013-02-16 04:22:00,30.0,20.0,-100.00,NNW,337,1.0,4.0,67,0.00,,,-99.99,,2013-02-16 11:22:00,
2013-02-16 04:31:00,29.0,20.0,-100.00,NNW,337,2.0,4.0,68,0.00,,,-99.99,,2013-02-16 11:31:00,
2013-02-16 04:42:00,28.0,20.0,-100.00,NNW,337,2.0,4.0,70,0.00,,,-99.99,,2013-02-16 11:42:00,
2013-02-16 04:52:00,29.0,20.0,-100.00,NW,318,2.0,4.0,69,0.00,,,-99.99,,2013-02-16 11:52:00,
2013-02-16 05:01:00,28.0,19.0,-100.00,NW,304,2.0,4.0,68,0.00,,,-99.99,,2013-02-16 12:01:00,
2013-02-16 05:12:00,28.0,20.0,-100.00,NW,309,2.0,4.0,72,0.00,,,-99.99,,2013-02-16 12:12:00,
2013-02-16 05:22:00,29.0,18.0,-100.00,WNW,295,3.0,4.0,63,0.00,,,-99.99,,2013-02-16 12:22:00,
2013-02-16 05:32:00,26.0,19.0,-100.00,NNW,339,2.0,5.0,73,0.00,,,-99.99,,2013-02-16 12:32:00,
2013-02-16 05:42:00,28.0,19.0,-100.00,NNW,335,2.0,4.0,71,0.00,,,-99.99,,2013-02-16 12:42:00,
2013-02-16 05:52:00,27.0,19.0,-100.00,NNW,342,2.0,4.0,71,0.00,,,-99.99,,2013-02-16 12:52:00,
2013-02-16 06:01:00,27.0,19.0,-100.00,NNW,346,2.0,4.0,72,0.00,,,-99.99,,2013-02-16 13:01:00,
2013-02-16 06:11:00,29.0,20.0,-100.00,North,349,1.0,3.0,68,0.00,,,-99.99,,2013-02-16 13:11:00,
2013-02-16 06:21:00,30.0,20.0,-100.00,WNW,299,0.0,1.0,67,0.00,,,-99.99,,2013-02-16 13:21:00,
2013-02-16 06:31:00,27.0,18.0,-100.00,NNE,23,2.0,4.0,69,0.00,,,-99.99,,2013-02-16 13:31:00,
2013-02-16 06:41:00,27.0,19.0,-100.00,North,360,3.0,6.0,72,0.00,,,-99.99,,2013-02-16 13:41:00,
2013-02-16 06:51:00,28.0,19.0,-100.00,North,354,1.0,3.0,71,0.00,,,-99.99,,2013-02-16 13:51:00,
2013-02-16 07:01:00,28.0,20.0,-100.00,NW,326,1.0,3.0,69,0.00,,,-99.99,,2013-02-16 14:01:00,
2013-02-16 07:11:00,29.0,20.0,-100.00,NNW,337,1.0,3.0,69,0.00,,,-99.99,,2013-02-16 14:11:00,
2013-02-16 07:21:00,29.0,20.0,-100.00,West,263,0.0,2.0,68,0.00,,,-99.99,,2013-02-16 14:21:00,
2013-02-16 07:32:00,29.0,20.0,-100.00,ESE,113,0.0,1.0,67,0.00,,,-99.99,,2013-02-16 14:32:00,
2013-02-16 07:41:00,30.0,20.0,-100.00,South,172,0.0,1.0,66,0.00,,,-99.99,,2013-02-16 14:41:00,
2013-02-16 07:51:00,28.0,18.0,-100.00,WNW,288,1.0,2.0,66,0.00,,,-99.99,,2013-02-16 14:51:00,
2013-02-16 08:01:00,29.0,19.0,-100.00,NNW,332,1.0,3.0,68,0.00,,,-99.99,,2013-02-16 15:01:00,
2013-02-16 08:11:00,30.0,20.0,-100.00,NNW,328,1.0,3.0,67,0.00,,,-99.99,,2013-02-16 15:11:00,
2013-02-16 08:21:00,32.0,20.0,-100.00,NNW,329,1.0,2.0,62,0.00,,,-99.99,,2013-02-16 15:21:00,
2013-02-16 08:31:00,34.0,20.0,-100.00,North,360,1.0,3.0,57,0.00,,,-99.99,,2013-02-16 15:31:00,
2013-02-16 08:41:00,33.0,20.0,-100.00,ENE,78,1.0,2.0,59,0.00,,,-99.99,,2013-02-16 15:41:00,
2013-02-16 08:51:00,34.0,20.0,-100.00,SE,128,0.0,1.0,56,0.00,,,-99.99,,2013-02-16 15:51:00,
2013-02-16 09:01:00,34.0,20.0,-100.00,WSW,256,1.0,2.0,58,0.00,,,-99.99,,2013-02-16 16:01:00,
2013-02-16 09:11:00,35.0,21.0,-100.00,West,267,4.0,6.0,56,0.00,,,-99.99,,2013-02-16 16:11:00,
2013-02-16 09:21:00,36.0,21.0,-100.00,West,275,6.0,7.0,55,0.00,,,-99.99,,2013-02-16 16:21:00,
2013-02-16 09:32:00,35.0,22.0,-100.00,WNW,285,7.0,9.0,58,0.00,,,-99.99,,2013-02-16 16:32:00,
2013-02-16 09:41:00,32.0,20.0,-100.00,NNW,329,6.0,9.0,60,0.00,,,-99.99,,2013-02-16 16:41:00,
2013-02-16 09:51:00,33.0,20.0,-100.00,North,360,5.0,7.0,60,0.00,,,-99.99,,2013-02-16 16:51:00,
2013-02-16 10:01:00,35.0,21.0,-100.00,North,357,4.0,7.0,57,0.00,,,-99.99,,2013-02-16 17:01:00,
2013-02-16 10:11:00,38.0,22.0,-100.00,North,353,2.0,4.0,52,0.00,,,-99.99,,2013-02-16 17:11:00,
2013-02-16 10:21:00,37.0,22.0,-100.00,North,350,3.0,6.0,55,0.00,,,-99.99,,2013-02-16 17:21:00,
2013-02-16 10:31:00,38.0,23.0,-100.00,North,352,4.0,5.0,54,0.00,,,-99.99,,2013-02-16 17:31:00,
2013-02-16 10:41:00,38.0,23.0,-100.00,North,353,4.0,6.0,55,0.00,,,-99.99,,2013-02-16 17:41:00,
2013-02-16 10:52:00,38.0,23.0,-100.00,North,359,4.0,7.0,53,0.00,,,-99.99,,2013-02-16 17:52:00,
2013-02-16 11:01:00,39.0,23.0,-100.00,NNW,346,3.0,6.0,51,0.00,,,-99.99,,2013-02-16 18:01:00,
2013-02-16 11:11:00,40.0,23.0,-100.00,NNW,337,1.0,4.0,50,0.00,,,-99.99,,2013-02-16 18:11:00,
2013-02-16 11:21:00,41.0,24.0,-100.00,NW,325,2.0,4.0,50,0.00,,,-99.99,,2013-02-16 18:21:00,
2013-02-16 11:32:00,41.0,25.0,-100.00,NNW,346,3.0,5.0,51,0.00,,,-99.99,,2013-02-16 18:32:00,
2013-02-16 11:41:00,42.0,24.0,-100.00,North,353,3.0,4.0,49,0.00,,,-99.99,,2013-02-16 18:41:00,
2013-02-16 11:51:00,42.0,24.0,-100.00,North,6,3.0,6.0,49,0.00,,,-99.99,,2013-02-16 18:51:00,
2013-02-16 12:01:00,41.0,25.0,-100.00,North,11,4.0,6.0,51,0.00,,,-99.99,,2013-02-16 19:01:00,
2013-02-16 12:11:00,47.0,24.0,-100.00,NNE,16,2.0,5.0,40,0.00,,,-99.99,,2013-02-16 19:11:00,
2013-02-16 12:21:00,45.0,23.0,-100.00,NNW,339,1.0,3.0,41,0.00,,,-99.99,,2013-02-16 19:21:00,
2013-02-16 12:31:00,43.0,23.0,-100.00,North,0,2.0,5.0,45,0.00,,,-99.99,,2013-02-16 19:31:00,
2013-02-16 12:42:00,43.0,24.0,-100.00,North,0,3.0,6.0,47,0.00,,,-99.99,,2013-02-16 19:42:00,
2013-02-16 12:52:00,43.0,26.0,-100.00,NNW,344,2.0,5.0,51,0.00,,,-99.99,,2013-02-16 19:52:00,
2013-02-16 13:01:00,43.0,26.0,-100.00,NNW,330,2.0,4.0,52,0.00,,,-99.99,,2013-02-16 20:01:00,
2013-02-16 13:11:00,43.0,25.0,-100.00,NNW,339,2.0,4.0,49,0.00,,,-99.99,,2013-02-16 20:11:00,
2013-02-16 13:21:00,44.0,24.0,-100.00,North,353,2.0,5.0,47,0.00,,,-99.99,,2013-02-16 20:21:00,
2013-02-16 13:31:00,44.0,25.0,-100.00,NNE,13,4.0,7.0,48,0.00,,,-99.99,,2013-02-16 20:31:00,
2013-02-16 13:42:00,43.0,25.0,-100.00,NNE,25,4.0,6.0,47,0.00,,,-99.99,,2013-02-16 20:42:00,
2013-02-16 13:52:00,49.0,25.0,-100.00,NE,34,2.0,5.0,39,0.00,,,-99.99,,2013-02-16 20:52:00,
2013-02-16 14:01:00,51.0,26.0,-100.00,NNE,31,1.0,2.0,37,0.00,,,-99.99,,2013-02-16 21:01:00,
2013-02-16 14:11:00,46.0,25.0,-100.00,North,353,2.0,5.0,41,0.00,,,-99.99,,2013-02-16 21:11:00,
2013-02-16 14:21:00,44.0,26.0,-100.00,North,349,3.0,4.0,48,0.00,,,-99.99,,2013-02-16 21:21:00,
2013-02-16 14:31:00,44.0,26.0,-100.00,North,3,5.0,7.0,50,0.00,,,-99.99,,2013-02-16 21:31:00,
2013-02-16 14:41:00,47.0,25.0,-100.00,North,1,3.0,6.0,42,0.00,,,-99.99,,2013-02-16 21:41:00,
2013-02-16 14:51:00,48.0,24.0,-100.00,North,353,1.0,3.0,38,0.00,,,-99.99,,2013-02-16 21:51:00,
2013-02-16 15:01:00,53.0,25.0,-100.00,ENE,73,1.0,4.0,34,0.00,,,-99.99,,2013-02-16 22:01:00,
2013-02-16 15:11:00,52.0,25.0,-100.00,ENE,78,2.0,3.0,34,0.00,,,-99.99,,2013-02-16 22:11:00,
2013-02-16 15:21:00,51.0,26.0,-100.00,ENE,71,2.0,4.0,39,0.00,,,-99.99,,2013-02-16 22:21:00,
2013-02-16 15:31:00,50.0,25.0,-100.00,ENE,75,1.0,3.0,37,0.00,,,-99.99,,2013-02-16 22:31:00,
2013-02-16 15:42:00,50.0,27.0,-100.00,ESE,112,2.0,3.0,42,0.00,,,-99.99,,2013-02-16 22:42:00,
2013-02-16 15:51:00,44.0,28.0,-100.00,ESE,102,3.0,7.0,53,0.00,,,-99.99,,2013-02-16 22:51:00,
2013-02-16 16:02:00,39.0,29.0,-100.00,ESE,117,7.0,9.0,66,0.00,,,-99.99,,2013-02-16 23:02:00,
2013-02-16 16:11:00,39.0,29.0,-100.00,SE,133,7.0,9.0,67,0.00,,,-99.99,,2013-02-16 23:11:00,
2013-02-16 16:21:00,39.0,28.0,-100.00,SE,126,7.0,9.0,64,0.00,,,-99.99,,2013-02-16 23:21:00,
2013-02-16 16:31:00,40.0,28.0,-100.00,ESE,114,6.0,7.0,62,0.00,,,-99.99,,2013-02-16 23:31:00,
2013-02-16 16:41:00,40.0,28.0,-100.00,SE,127,5.0,7.0,61,0.00,,,-99.99,,2013-02-16 23:41:00,
2013-02-16 16:52:00,42.0,27.0,-100.00,ESE,123,3.0,5.0,55,0.00,,,-99.99,,2013-02-16 23:52:00,
2013-02-16 17:01:00,44.0,26.0,-100.00,ESE,104,2.0,5.0,50,0.00,,,-99.99,,2013-02-17 00:01:00,
2013-02-16 17:11:00,44.0,26.0,-100.00,ESE,104,2.0,5.0,50,0.00,,,-99.99,,2013-02-17 00:11:00,
2013-02-16 17:21:00,40.0,26.0,-100.00,SSE,151,4.0,7.0,57,0.00,,,-99.99,,2013-02-17 00:21:00,
2013-02-16 17:31:00,39.0,26.0,-100.00,SSE,165,7.0,9.0,61,0.00,,,-99.99,,2013-02-17 00:31:00,
2013-02-16 17:41:00,38.0,26.0,-100.00,SSE,167,6.0,8.0,61,0.00,,,-99.99,,2013-02-17 00:41:00,
2013-02-16 17:52:00,39.0,26.0,-100.00,SSE,147,6.0,7.0,58,0.00,,,-99.99,,2013-02-17 00:52:00,
2013-02-16 18:01:00,39.0,26.0,-100.00,SE,143,5.0,7.0,60,0.00,,,-99.99,,2013-02-17 01:01:00,
2013-02-16 18:11:00,38.0,25.0,-100.00,SE,141,3.0,4.0,58,0.00,,,-99.99,,2013-02-17 01:11:00,
2013-02-16 18:21:00,36.0,26.0,-100.00,ESE,114,2.0,6.0,66,0.00,,,-99.99,,2013-02-17 01:21:00,
2013-02-16 18:31:00,35.0,25.0,-100.00,South,176,1.0,2.0,65,0.00,,,-99.99,,2013-02-17 01:31:00,
2013-02-16 18:41:00,37.0,25.0,-100.00,WNW,282,0.0,1.0,61,0.00,,,-99.99,,2013-02-17 01:41:00,
2013-02-16 18:52:00,36.0,25.0,-100.00,North,360,0.0,1.0,62,0.00,,,-99.99,,2013-02-17 01:52:00,
2013-02-16 19:01:00,37.0,25.0,-100.00,SW,217,1.0,3.0,60,0.00,,,-99.99,,2013-02-17 02:01:00,
2013-02-16 19:11:00,35.0,23.0,-100.00,NE,34,1.0,2.0,60,0.00,,,-99.99,,2013-02-17 02:11:00,
2013-02-16 19:21:00,38.0,23.0,-100.00,WSW,257,2.0,3.0,55,0.00,,,-99.99,,2013-02-17 02:21:00,
2013-02-16 19:31:00,38.0,22.0,-100.00,SW,230,1.0,3.0,53,0.00,,,-99.99,,2013-02-17 02:31:00,
2013-02-16 19:41:00,39.0,22.0,-100.00,SSE,157,0.0,2.0,51,0.00,,,-99.99,,2013-02-17 02:41:00,
2013-02-16 19:51:00,36.0,21.0,-100.00,NNE,27,1.0,3.0,54,0.00,,,-99.99,,2013-02-17 02:51:00,
2013-02-16 20:01:00,37.0,22.0,-100.00,WNW,299,2.0,4.0,53,0.00,,,-99.99,,2013-02-17 03:01:00,
2013-02-16 20:11:00,39.0,22.0,-100.00,West,261,3.0,4.0,49,0.00,,,-99.99,,2013-02-17 03:11:00,
2013-02-16 20:21:00,40.0,21.0,-100.00,West,261,1.0,6.0,47,0.00,,,-99.99,,2013-02-17 03:21:00,
2013-02-16 20:31:00,39.0,21.0,-100.00,West,272,2.0,5.0,48,0.00,,,-99.99,,2013-02-17 03:31:00,
2013-02-16 20:41:00,41.0,21.0,-100.00,West,272,2.0,6.0,45,-99.99,,,-99.99,,2013-02-17 03:41:00,
2013-02-16 20:51:00,39.0,21.0,-100.00,WSW,243,3.0,7.0,48,0.00,,,-99.99,,2013-02-17 03:51:00,
2013-02-16 21:01:00,40.0,21.0,-100.00,SSW,212,3.0,7.0,47,0.00,,,-99.99,,2013-02-17 04:01:00,
2013-02-16 21:11:00,39.0,21.0,-100.00,SSE,161,4.0,6.0,48,0.00,,,-99.99,,2013-02-17 04:11:00,
2013-02-16 21:21:00,38.0,21.0,-100.00,SSE,152,4.0,6.0,49,0.00,,,-99.99,,2013-02-17 04:21:00,
2013-02-16 21:31:00,36.0,21.0,-100.00,SE,130,4.0,6.0,54,0.00,,,-99.99,,2013-02-17 04:31:00,
2013-02-16 21:41:00,34.0,21.0,-100.00,South,188,1.0,3.0,58,0.00,,,-99.99,,2013-02-17 04:41:00,
2013-02-16 21:51:00,34.0,21.0,-100.00,WNW,289,0.0,2.0,58,0.00,,,-99.99,,2013-02-17 04:51:00,
2013-02-16 22:01:00,36.0,22.0,-100.00,SSE,147,1.0,2.0,55,0.00,,,-99.99,,2013-02-17 05:01:00,
2013-02-16 22:11:00,35.0,21.0,-100.00,SSE,160,1.0,2.0,57,0.00,,,-99.99,,2013-02-17 05:11:00,
2013-02-16 22:21:00,35.0,22.0,-100.00,East,92,0.0,1.0,57,0.00,,,-99.99,,2013-02-17 05:21:00,
2013-02-16 22:32:00,37.0,22.0,-100.00,SE,138,2.0,5.0,55,0.00,,,-99.99,,2013-02-17 05:32:00,
2013-02-16 22:42:00,38.0,22.0,-100.00,SSE,165,3.0,5.0,54,0.00,,,-99.99,,2013-02-17 05:42:00,
2013-02-16 22:51:00,36.0,22.0,-100.00,South,169,1.0,4.0,57,0.00,,,-99.99,,2013-02-17 05:51:00,
2013-02-16 23:01:00,36.0,23.0,-100.00,SSE,164,1.0,4.0,59,0.00,,,-99.99,,2013-02-17 06:01:00,
2013-02-16 23:11:00,38.0,23.0,-100.00,SSE,154,2.0,4.0,56,0.00,,,-99.99,,2013-02-17 06:11:00,
2013-02-16 23:21:00,35.0,22.0,-100.00,SSE,150,2.0,4.0,58,0.00,,,-99.99,,2013-02-17 06:21:00,
2013-02-16 23:31:00,36.0,24.0,-100.00,SSE,167,7.0,8.0,61,0.00,,,-99.99,,2013-02-17 06:31:00,
2013-02-16 23:41:00,36.0,24.0,-100.00,South,169,6.0,7.0,61,0.00,,,-99.99,,2013-02-17 06:41:00,
2013-02-16 23:51:00,35.0,24.0,-100.00,SSE,157,6.0,7.0,61,0.00,,,-99.99,,2013-02-17 06:51:00,